Terminal Aerodrome Forecast
Issued by NWS Detroit/Pontiac, MI

Home | Current Version | Previous Version | Text Only | Print | Product List | Glossary On
Versions: 1 2 3 4 5 6 7 8 9 10 11 12 13 14
000
FTUS43 KDTX 221120
TAFFNT
TAF
KFNT 221120Z 2212/2312 13005KT 5SM BR SCT150 BKN200
     FM221500 12007KT P6SM SCT050 BKN180
     FM222000 11007KT P6SM BKN035
     FM230200 11007KT 5SM BR OVC030
     FM230600 10009KT 3SM -RA BR OVC012=

USA.gov is the U.S. government's official web portal to all federal, state and local government web resources and services.